sensor_id;sensor_type;location;lat;lon;timestamp;P1;durP1;ratioP1;P2;durP2;ratioP2
60436;SDS011;46289;51.992;4.498;2022-08-19T00:02:01;13.82;;;7.95;;
60436;SDS011;46289;51.992;4.498;2022-08-19T00:04:40;17.50;;;8.43;;
60436;SDS011;46289;51.992;4.498;2022-08-19T00:07:13;14.82;;;8.27;;
60436;SDS011;46289;51.992;4.498;2022-08-19T00:09:45;17.15;;;8.25;;
60436;SDS011;46289;51.992;4.498;2022-08-19T00:12:18;15.45;;;8.27;;
60436;SDS011;46289;51.992;4.498;2022-08-19T00:14:50;17.50;;;8.00;;
60436;SDS011;46289;51.992;4.498;2022-08-19T00:17:20;19.00;;;9.02;;
60436;SDS011;46289;51.992;4.498;2022-08-19T00:19:50;14.65;;;8.27;;
60436;SDS011;46289;51.992;4.498;2022-08-19T00:22:27;17.33;;;8.45;;
60436;SDS011;46289;51.992;4.498;2022-08-19T00:25:06;16.43;;;7.47;;
60436;SDS011;46289;51.992;4.498;2022-08-19T00:27:37;18.02;;;8.80;;
60436;SDS011;46289;51.992;4.498;2022-08-19T00:30:07;17.27;;;8.65;;
60436;SDS011;46289;51.992;4.498;2022-08-19T00:32:38;16.17;;;8.85;;
60436;SDS011;46289;51.992;4.498;2022-08-19T00:35:09;16.42;;;8.32;;
60436;SDS011;46289;51.992;4.498;2022-08-19T00:37:39;16.20;;;8.05;;
60436;SDS011;46289;51.992;4.498;2022-08-19T00:40:13;19.58;;;9.07;;
60436;SDS011;46289;51.992;4.498;2022-08-19T00:42:45;14.25;;;8.32;;
60436;SDS011;46289;51.992;4.498;2022-08-19T00:45:21;18.77;;;9.65;;
60436;SDS011;46289;51.992;4.498;2022-08-19T00:47:57;18.83;;;9.80;;
60436;SDS011;46289;51.992;4.498;2022-08-19T00:50:41;17.48;;;8.95;;
60436;SDS011;46289;51.992;4.498;2022-08-19T00:53:18;18.73;;;9.65;;
60436;SDS011;46289;51.992;4.498;2022-08-19T00:58:30;16.80;;;8.95;;
60436;SDS011;46289;51.992;4.498;2022-08-19T01:01:06;16.08;;;8.85;;
60436;SDS011;46289;51.992;4.498;2022-08-19T01:03:38;16.20;;;8.60;;
60436;SDS011;46289;51.992;4.498;2022-08-19T01:06:25;15.80;;;8.60;;
60436;SDS011;46289;51.992;4.498;2022-08-19T01:08:57;20.35;;;9.00;;
60436;SDS011;46289;51.992;4.498;2022-08-19T01:11:36;16.48;;;8.85;;
60436;SDS011;46289;51.992;4.498;2022-08-19T01:14:12;14.40;;;7.97;;
60436;SDS011;46289;51.992;4.498;2022-08-19T01:16:48;15.57;;;8.27;;
60436;SDS011;46289;51.992;4.498;2022-08-19T01:19:21;16.80;;;8.98;;
60436;SDS011;46289;51.992;4.498;2022-08-19T01:22:11;15.70;;;8.35;;
60436;SDS011;46289;51.992;4.498;2022-08-19T01:24:55;17.83;;;9.10;;
60436;SDS011;46289;51.992;4.498;2022-08-19T01:27:41;17.13;;;9.02;;
60436;SDS011;46289;51.992;4.498;2022-08-19T01:30:20;18.02;;;9.57;;
60436;SDS011;46289;51.992;4.498;2022-08-19T01:32:53;18.20;;;8.75;;
60436;SDS011;46289;51.992;4.498;2022-08-19T01:35:28;18.48;;;9.40;;
60436;SDS011;46289;51.992;4.498;2022-08-19T01:38:07;15.68;;;9.93;;
60436;SDS011;46289;51.992;4.498;2022-08-19T01:40:43;15.57;;;7.95;;
60436;SDS011;46289;51.992;4.498;2022-08-19T01:43:15;19.98;;;8.82;;
60436;SDS011;46289;51.992;4.498;2022-08-19T01:45:49;17.17;;;8.50;;
60436;SDS011;46289;51.992;4.498;2022-08-19T01:48:20;16.35;;;8.70;;
60436;SDS011;46289;51.992;4.498;2022-08-19T01:50:55;17.27;;;9.32;;
60436;SDS011;46289;51.992;4.498;2022-08-19T01:53:29;21.08;;;11.80;;
60436;SDS011;46289;51.992;4.498;2022-08-19T01:56:07;19.40;;;9.93;;
60436;SDS011;46289;51.992;4.498;2022-08-19T01:58:40;22.08;;;11.77;;
60436;SDS011;46289;51.992;4.498;2022-08-19T02:01:19;24.15;;;11.32;;
60436;SDS011;46289;51.992;4.498;2022-08-19T02:03:56;24.48;;;13.70;;
60436;SDS011;46289;51.992;4.498;2022-08-19T02:06:27;25.92;;;13.55;;
60436;SDS011;46289;51.992;4.498;2022-08-19T02:11:37;26.17;;;13.18;;
60436;SDS011;46289;51.992;4.498;2022-08-19T02:14:13;23.50;;;12.48;;
60436;SDS011;46289;51.992;4.498;2022-08-19T02:16:45;26.30;;;13.60;;
60436;SDS011;46289;51.992;4.498;2022-08-19T02:19:17;24.90;;;12.90;;
60436;SDS011;46289;51.992;4.498;2022-08-19T02:21:49;29.77;;;16.20;;
60436;SDS011;46289;51.992;4.498;2022-08-19T02:24:19;35.17;;;16.85;;
60436;SDS011;46289;51.992;4.498;2022-08-19T02:26:52;38.65;;;19.88;;
60436;SDS011;46289;51.992;4.498;2022-08-19T02:29:27;32.35;;;16.67;;
60436;SDS011;46289;51.992;4.498;2022-08-19T02:31:56;33.67;;;16.25;;
60436;SDS011;46289;51.992;4.498;2022-08-19T02:34:27;38.08;;;16.98;;
60436;SDS011;46289;51.992;4.498;2022-08-19T02:36:57;39.17;;;18.52;;
60436;SDS011;46289;51.992;4.498;2022-08-19T02:39:29;40.05;;;18.83;;
60436;SDS011;46289;51.992;4.498;2022-08-19T02:42:04;34.00;;;16.67;;
60436;SDS011;46289;51.992;4.498;2022-08-19T02:44:36;38.67;;;18.73;;
60436;SDS011;46289;51.992;4.498;2022-08-19T02:47:13;36.78;;;16.48;;
60436;SDS011;46289;51.992;4.498;2022-08-19T02:49:45;38.53;;;18.85;;
60436;SDS011;46289;51.992;4.498;2022-08-19T02:52:16;39.50;;;18.33;;
60436;SDS011;46289;51.992;4.498;2022-08-19T02:54:46;37.85;;;18.42;;
60436;SDS011;46289;51.992;4.498;2022-08-19T02:57:18;45.47;;;19.52;;
60436;SDS011;46289;51.992;4.498;2022-08-19T02:59:48;39.78;;;20.42;;
60436;SDS011;46289;51.992;4.498;2022-08-19T03:02:21;47.07;;;20.83;;
60436;SDS011;46289;51.992;4.498;2022-08-19T03:07:38;39.42;;;17.38;;
60436;SDS011;46289;51.992;4.498;2022-08-19T03:10:12;41.50;;;19.77;;
60436;SDS011;46289;51.992;4.498;2022-08-19T03:12:45;45.95;;;20.15;;
60436;SDS011;46289;51.992;4.498;2022-08-19T03:15:15;48.45;;;21.55;;
60436;SDS011;46289;51.992;4.498;2022-08-19T03:17:47;52.92;;;23.58;;
60436;SDS011;46289;51.992;4.498;2022-08-19T03:20:17;48.90;;;23.02;;
60436;SDS011;46289;51.992;4.498;2022-08-19T03:22:48;48.88;;;22.55;;
60436;SDS011;46289;51.992;4.498;2022-08-19T03:25:18;54.45;;;25.17;;
60436;SDS011;46289;51.992;4.498;2022-08-19T03:27:52;54.53;;;23.55;;
60436;SDS011;46289;51.992;4.498;2022-08-19T03:30:25;52.60;;;22.58;;
60436;SDS011;46289;51.992;4.498;2022-08-19T03:33:01;50.72;;;21.95;;
60436;SDS011;46289;51.992;4.498;2022-08-19T03:35:37;54.47;;;24.88;;
60436;SDS011;46289;51.992;4.498;2022-08-19T03:38:09;64.03;;;25.38;;
60436;SDS011;46289;51.992;4.498;2022-08-19T03:40:41;56.78;;;24.63;;
60436;SDS011;46289;51.992;4.498;2022-08-19T03:43:16;58.50;;;25.60;;
60436;SDS011;46289;51.992;4.498;2022-08-19T03:45:46;67.05;;;28.27;;
60436;SDS011;46289;51.992;4.498;2022-08-19T03:48:18;62.80;;;26.58;;
60436;SDS011;46289;51.992;4.498;2022-08-19T03:50:54;74.68;;;29.77;;
60436;SDS011;46289;51.992;4.498;2022-08-19T03:53:32;69.13;;;28.38;;
60436;SDS011;46289;51.992;4.498;2022-08-19T03:56:07;63.33;;;28.35;;
60436;SDS011;46289;51.992;4.498;2022-08-19T03:58:42;74.88;;;29.38;;
60436;SDS011;46289;51.992;4.498;2022-08-19T04:01:13;69.83;;;26.87;;
60436;SDS011;46289;51.992;4.498;2022-08-19T04:04:00;70.95;;;28.02;;
60436;SDS011;46289;51.992;4.498;2022-08-19T04:06:33;80.90;;;30.80;;
60436;SDS011;46289;51.992;4.498;2022-08-19T04:09:11;83.30;;;31.77;;
60436;SDS011;46289;51.992;4.498;2022-08-19T04:11:47;77.07;;;27.25;;
60436;SDS011;46289;51.992;4.498;2022-08-19T04:14:23;75.95;;;31.13;;
60436;SDS011;46289;51.992;4.498;2022-08-19T04:16:57;86.75;;;33.13;;
60436;SDS011;46289;51.992;4.498;2022-08-19T04:19:36;89.85;;;35.47;;
60436;SDS011;46289;51.992;4.498;2022-08-19T04:22:06;91.22;;;36.13;;
60436;SDS011;46289;51.992;4.498;2022-08-19T04:24:38;98.45;;;34.97;;
60436;SDS011;46289;51.992;4.498;2022-08-19T04:27:08;94.53;;;35.38;;
60436;SDS011;46289;51.992;4.498;2022-08-19T04:29:44;95.15;;;35.50;;
60436;SDS011;46289;51.992;4.498;2022-08-19T04:32:16;98.13;;;37.83;;
60436;SDS011;46289;51.992;4.498;2022-08-19T04:34:46;102.10;;;37.60;;
60436;SDS011;46289;51.992;4.498;2022-08-19T04:37:28;106.75;;;37.45;;
60436;SDS011;46289;51.992;4.498;2022-08-19T04:40:06;92.30;;;34.63;;
60436;SDS011;46289;51.992;4.498;2022-08-19T04:42:49;92.90;;;36.80;;
60436;SDS011;46289;51.992;4.498;2022-08-19T04:45:23;92.20;;;37.53;;
60436;SDS011;46289;51.992;4.498;2022-08-19T04:48:11;106.55;;;36.65;;
60436;SDS011;46289;51.992;4.498;2022-08-19T04:50:52;99.50;;;38.30;;
60436;SDS011;46289;51.992;4.498;2022-08-19T04:53:27;103.70;;;37.00;;
60436;SDS011;46289;51.992;4.498;2022-08-19T04:56:07;95.57;;;35.17;;
60436;SDS011;46289;51.992;4.498;2022-08-19T04:58:39;105.30;;;37.53;;
60436;SDS011;46289;51.992;4.498;2022-08-19T05:01:14;103.70;;;36.97;;
60436;SDS011;46289;51.992;4.498;2022-08-19T05:03:48;97.90;;;35.33;;
60436;SDS011;46289;51.992;4.498;2022-08-19T05:06:24;102.00;;;33.80;;
60436;SDS011;46289;51.992;4.498;2022-08-19T05:09:02;88.45;;;32.83;;
60436;SDS011;46289;51.992;4.498;2022-08-19T05:11:37;97.25;;;35.42;;
60436;SDS011;46289;51.992;4.498;2022-08-19T05:14:08;97.55;;;34.42;;
60436;SDS011;46289;51.992;4.498;2022-08-19T05:16:44;108.53;;;36.07;;
60436;SDS011;46289;51.992;4.498;2022-08-19T05:19:14;89.88;;;31.67;;
60436;SDS011;46289;51.992;4.498;2022-08-19T05:22:02;99.43;;;34.22;;
60436;SDS011;46289;51.992;4.498;2022-08-19T05:24:47;88.13;;;31.40;;
60436;SDS011;46289;51.992;4.498;2022-08-19T05:27:38;93.90;;;34.38;;
60436;SDS011;46289;51.992;4.498;2022-08-19T05:30:09;86.93;;;31.65;;
60436;SDS011;46289;51.992;4.498;2022-08-19T05:32:46;86.10;;;32.95;;
60436;SDS011;46289;51.992;4.498;2022-08-19T05:35:19;89.43;;;34.25;;
60436;SDS011;46289;51.992;4.498;2022-08-19T05:37:49;87.90;;;34.17;;
60436;SDS011;46289;51.992;4.498;2022-08-19T05:40:24;92.60;;;35.60;;
60436;SDS011;46289;51.992;4.498;2022-08-19T05:43:02;86.03;;;34.08;;
60436;SDS011;46289;51.992;4.498;2022-08-19T05:45:32;79.80;;;34.38;;
60436;SDS011;46289;51.992;4.498;2022-08-19T05:48:11;101.97;;;37.33;;
60436;SDS011;46289;51.992;4.498;2022-08-19T05:50:47;86.65;;;35.50;;
60436;SDS011;46289;51.992;4.498;2022-08-19T05:53:18;90.07;;;33.70;;
60436;SDS011;46289;51.992;4.498;2022-08-19T05:55:49;72.75;;;32.30;;
60436;SDS011;46289;51.992;4.498;2022-08-19T05:58:21;76.03;;;34.10;;
60436;SDS011;46289;51.992;4.498;2022-08-19T06:00:54;77.05;;;31.88;;
60436;SDS011;46289;51.992;4.498;2022-08-19T06:03:36;74.55;;;31.23;;
60436;SDS011;46289;51.992;4.498;2022-08-19T06:06:11;71.78;;;29.73;;
60436;SDS011;46289;51.992;4.498;2022-08-19T06:08:43;85.05;;;34.35;;
60436;SDS011;46289;51.992;4.498;2022-08-19T06:11:19;73.00;;;31.13;;
60436;SDS011;46289;51.992;4.498;2022-08-19T06:16:29;64.45;;;29.48;;
60436;SDS011;46289;51.992;4.498;2022-08-19T06:19:06;71.65;;;30.95;;
60436;SDS011;46289;51.992;4.498;2022-08-19T06:21:40;69.22;;;32.05;;
60436;SDS011;46289;51.992;4.498;2022-08-19T06:24:11;69.30;;;30.38;;
60436;SDS011;46289;51.992;4.498;2022-08-19T06:26:45;61.95;;;29.00;;
60436;SDS011;46289;51.992;4.498;2022-08-19T06:29:19;66.95;;;28.83;;
60436;SDS011;46289;51.992;4.498;2022-08-19T06:31:51;59.95;;;28.75;;
60436;SDS011;46289;51.992;4.498;2022-08-19T06:34:32;62.60;;;28.52;;
60436;SDS011;46289;51.992;4.498;2022-08-19T06:37:07;60.45;;;29.17;;
60436;SDS011;46289;51.992;4.498;2022-08-19T06:39:38;60.78;;;28.13;;
60436;SDS011;46289;51.992;4.498;2022-08-19T06:42:13;60.53;;;29.38;;
60436;SDS011;46289;51.992;4.498;2022-08-19T06:44:51;63.40;;;29.88;;
60436;SDS011;46289;51.992;4.498;2022-08-19T06:47:23;65.10;;;29.70;;
60436;SDS011;46289;51.992;4.498;2022-08-19T06:50:01;62.60;;;29.77;;
60436;SDS011;46289;51.992;4.498;2022-08-19T06:52:37;62.20;;;28.15;;
60436;SDS011;46289;51.992;4.498;2022-08-19T06:55:18;59.35;;;27.02;;
60436;SDS011;46289;51.992;4.498;2022-08-19T07:00:31;57.28;;;26.50;;
60436;SDS011;46289;51.992;4.498;2022-08-19T07:03:05;60.28;;;28.85;;
60436;SDS011;46289;51.992;4.498;2022-08-19T07:05:43;69.00;;;32.42;;
60436;SDS011;46289;51.992;4.498;2022-08-19T07:08:17;59.75;;;29.42;;
60436;SDS011;46289;51.992;4.498;2022-08-19T07:10:47;60.65;;;28.50;;
60436;SDS011;46289;51.992;4.498;2022-08-19T07:13:17;66.53;;;30.80;;
60436;SDS011;46289;51.992;4.498;2022-08-19T07:15:48;56.28;;;27.17;;
60436;SDS011;46289;51.992;4.498;2022-08-19T07:18:20;61.78;;;28.20;;
60436;SDS011;46289;51.992;4.498;2022-08-19T07:21:07;52.83;;;26.90;;
60436;SDS011;46289;51.992;4.498;2022-08-19T07:23:42;52.92;;;26.15;;
60436;SDS011;46289;51.992;4.498;2022-08-19T07:26:19;56.67;;;26.60;;
60436;SDS011;46289;51.992;4.498;2022-08-19T07:29:17;51.00;;;24.58;;
60436;SDS011;46289;51.992;4.498;2022-08-19T07:31:54;47.53;;;24.08;;
60436;SDS011;46289;51.992;4.498;2022-08-19T07:34:40;53.55;;;25.95;;
60436;SDS011;46289;51.992;4.498;2022-08-19T07:37:22;44.75;;;22.05;;
60436;SDS011;46289;51.992;4.498;2022-08-19T07:40:06;46.28;;;23.08;;
60436;SDS011;46289;51.992;4.498;2022-08-19T07:42:37;46.15;;;21.67;;
60436;SDS011;46289;51.992;4.498;2022-08-19T07:45:09;43.20;;;21.83;;
60436;SDS011;46289;51.992;4.498;2022-08-19T07:47:42;43.20;;;21.02;;
60436;SDS011;46289;51.992;4.498;2022-08-19T07:50:18;42.22;;;21.23;;
60436;SDS011;46289;51.992;4.498;2022-08-19T07:52:54;35.38;;;18.45;;
60436;SDS011;46289;51.992;4.498;2022-08-19T07:55:30;43.80;;;20.05;;
60436;SDS011;46289;51.992;4.498;2022-08-19T07:58:10;40.85;;;21.73;;
60436;SDS011;46289;51.992;4.498;2022-08-19T08:00:41;38.63;;;21.65;;
60436;SDS011;46289;51.992;4.498;2022-08-19T08:03:16;44.13;;;20.67;;
60436;SDS011;46289;51.992;4.498;2022-08-19T08:06:09;39.50;;;21.45;;
60436;SDS011;46289;51.992;4.498;2022-08-19T08:08:57;41.10;;;20.88;;
60436;SDS011;46289;51.992;4.498;2022-08-19T08:11:48;39.20;;;19.23;;
60436;SDS011;46289;51.992;4.498;2022-08-19T08:14:21;38.65;;;18.80;;
60436;SDS011;46289;51.992;4.498;2022-08-19T08:16:55;37.15;;;18.45;;
60436;SDS011;46289;51.992;4.498;2022-08-19T08:19:29;36.10;;;18.38;;
60436;SDS011;46289;51.992;4.498;2022-08-19T08:22:04;36.30;;;19.33;;
60436;SDS011;46289;51.992;4.498;2022-08-19T08:24:39;34.75;;;17.70;;
60436;SDS011;46289;51.992;4.498;2022-08-19T08:27:15;32.88;;;18.48;;
60436;SDS011;46289;51.992;4.498;2022-08-19T08:29:51;30.85;;;17.70;;
60436;SDS011;46289;51.992;4.498;2022-08-19T08:32:22;30.80;;;17.30;;
60436;SDS011;46289;51.992;4.498;2022-08-19T08:34:56;28.52;;;15.55;;
60436;SDS011;46289;51.992;4.498;2022-08-19T08:37:30;25.73;;;15.90;;
60436;SDS011;46289;51.992;4.498;2022-08-19T08:40:04;31.52;;;15.55;;
60436;SDS011;46289;51.992;4.498;2022-08-19T08:42:45;29.05;;;14.48;;
60436;SDS011;46289;51.992;4.498;2022-08-19T08:45:27;28.27;;;14.57;;
60436;SDS011;46289;51.992;4.498;2022-08-19T08:48:11;27.20;;;13.20;;
60436;SDS011;46289;51.992;4.498;2022-08-19T08:50:49;26.40;;;14.10;;
60436;SDS011;46289;51.992;4.498;2022-08-19T08:53:27;21.98;;;13.27;;
60436;SDS011;46289;51.992;4.498;2022-08-19T08:56:10;21.35;;;12.88;;
60436;SDS011;46289;51.992;4.498;2022-08-19T08:58:46;23.13;;;13.25;;
60436;SDS011;46289;51.992;4.498;2022-08-19T09:01:20;23.27;;;12.20;;
60436;SDS011;46289;51.992;4.498;2022-08-19T09:03:56;21.50;;;11.63;;
60436;SDS011;46289;51.992;4.498;2022-08-19T09:06:34;22.08;;;11.68;;
60436;SDS011;46289;51.992;4.498;2022-08-19T09:09:15;21.42;;;11.80;;
60436;SDS011;46289;51.992;4.498;2022-08-19T09:12:02;21.92;;;10.98;;
60436;SDS011;46289;51.992;4.498;2022-08-19T09:14:42;20.52;;;10.68;;
60436;SDS011;46289;51.992;4.498;2022-08-19T09:17:18;20.55;;;11.77;;
60436;SDS011;46289;51.992;4.498;2022-08-19T09:19:58;21.27;;;11.35;;
60436;SDS011;46289;51.992;4.498;2022-08-19T09:22:35;23.17;;;11.07;;
60436;SDS011;46289;51.992;4.498;2022-08-19T09:25:06;17.13;;;8.93;;
60436;SDS011;46289;51.992;4.498;2022-08-19T09:27:41;16.67;;;9.18;;
60436;SDS011;46289;51.992;4.498;2022-08-19T09:30:13;20.02;;;9.70;;
60436;SDS011;46289;51.992;4.498;2022-08-19T09:32:49;21.52;;;9.00;;
60436;SDS011;46289;51.992;4.498;2022-08-19T09:35:32;13.95;;;8.73;;
60436;SDS011;46289;51.992;4.498;2022-08-19T09:38:19;18.08;;;9.63;;
60436;SDS011;46289;51.992;4.498;2022-08-19T09:41:01;15.52;;;8.27;;
60436;SDS011;46289;51.992;4.498;2022-08-19T09:43:35;16.90;;;9.30;;
60436;SDS011;46289;51.992;4.498;2022-08-19T09:46:13;18.00;;;9.18;;
60436;SDS011;46289;51.992;4.498;2022-08-19T09:48:47;17.42;;;7.80;;
60436;SDS011;46289;51.992;4.498;2022-08-19T09:51:19;15.18;;;8.70;;
60436;SDS011;46289;51.992;4.498;2022-08-19T09:53:53;19.45;;;9.48;;
60436;SDS011;46289;51.992;4.498;2022-08-19T09:56:30;14.88;;;8.18;;
60436;SDS011;46289;51.992;4.498;2022-08-19T09:59:05;14.57;;;8.15;;
60436;SDS011;46289;51.992;4.498;2022-08-19T10:01:36;12.68;;;6.97;;
60436;SDS011;46289;51.992;4.498;2022-08-19T10:04:05;11.52;;;6.55;;
60436;SDS011;46289;51.992;4.498;2022-08-19T10:06:46;12.32;;;6.63;;
60436;SDS011;46289;51.992;4.498;2022-08-19T10:09:20;9.68;;;5.57;;
60436;SDS011;46289;51.992;4.498;2022-08-19T10:12:03;10.10;;;5.72;;
60436;SDS011;46289;51.992;4.498;2022-08-19T10:14:48;14.60;;;6.10;;
60436;SDS011;46289;51.992;4.498;2022-08-19T10:17:20;15.07;;;7.50;;
60436;SDS011;46289;51.992;4.498;2022-08-19T10:20:06;16.15;;;9.45;;
60436;SDS011;46289;51.992;4.498;2022-08-19T10:22:40;13.48;;;8.32;;
60436;SDS011;46289;51.992;4.498;2022-08-19T10:25:10;13.27;;;7.70;;
60436;SDS011;46289;51.992;4.498;2022-08-19T10:27:44;14.55;;;8.63;;
60436;SDS011;46289;51.992;4.498;2022-08-19T10:30:19;11.48;;;5.72;;
60436;SDS011;46289;51.992;4.498;2022-08-19T10:32:53;14.25;;;6.43;;
60436;SDS011;46289;51.992;4.498;2022-08-19T10:35:25;9.18;;;4.60;;
60436;SDS011;46289;51.992;4.498;2022-08-19T10:38:22;12.95;;;5.47;;
60436;SDS011;46289;51.992;4.498;2022-08-19T10:40:57;8.30;;;4.45;;
60436;SDS011;46289;51.992;4.498;2022-08-19T10:43:27;9.25;;;4.60;;
60436;SDS011;46289;51.992;4.498;2022-08-19T10:46:12;8.85;;;4.80;;
60436;SDS011;46289;51.992;4.498;2022-08-19T10:48:44;10.50;;;4.70;;
60436;SDS011;46289;51.992;4.498;2022-08-19T10:51:15;7.60;;;4.00;;
60436;SDS011;46289;51.992;4.498;2022-08-19T10:54:02;6.72;;;3.80;;
60436;SDS011;46289;51.992;4.498;2022-08-19T10:56:38;8.43;;;4.05;;
60436;SDS011;46289;51.992;4.498;2022-08-19T10:59:20;7.88;;;3.85;;
60436;SDS011;46289;51.992;4.498;2022-08-19T11:02:04;9.05;;;3.60;;
60436;SDS011;46289;51.992;4.498;2022-08-19T11:04:36;6.88;;;2.97;;
60436;SDS011;46289;51.992;4.498;2022-08-19T11:07:07;8.00;;;3.05;;
60436;SDS011;46289;51.992;4.498;2022-08-19T11:09:39;7.57;;;4.30;;
60436;SDS011;46289;51.992;4.498;2022-08-19T11:12:15;9.27;;;3.20;;
60436;SDS011;46289;51.992;4.498;2022-08-19T11:17:19;9.75;;;4.00;;
60436;SDS011;46289;51.992;4.498;2022-08-19T11:19:50;9.60;;;4.28;;
60436;SDS011;46289;51.992;4.498;2022-08-19T11:22:20;12.68;;;4.18;;
60436;SDS011;46289;51.992;4.498;2022-08-19T11:25:02;8.32;;;3.80;;
60436;SDS011;46289;51.992;4.498;2022-08-19T11:27:40;11.32;;;3.83;;
60436;SDS011;46289;51.992;4.498;2022-08-19T11:30:14;7.80;;;4.03;;
60436;SDS011;46289;51.992;4.498;2022-08-19T11:32:46;8.43;;;3.70;;
60436;SDS011;46289;51.992;4.498;2022-08-19T11:35:16;8.45;;;3.80;;
60436;SDS011;46289;51.992;4.498;2022-08-19T11:37:49;8.23;;;3.80;;
60436;SDS011;46289;51.992;4.498;2022-08-19T11:40:21;6.82;;;3.42;;
60436;SDS011;46289;51.992;4.498;2022-08-19T11:42:50;5.82;;;3.30;;
60436;SDS011;46289;51.992;4.498;2022-08-19T11:45:29;5.75;;;2.72;;
60436;SDS011;46289;51.992;4.498;2022-08-19T11:48:05;6.55;;;3.20;;
60436;SDS011;46289;51.992;4.498;2022-08-19T11:50:39;9.27;;;3.80;;
60436;SDS011;46289;51.992;4.498;2022-08-19T11:53:11;5.82;;;3.15;;
60436;SDS011;46289;51.992;4.498;2022-08-19T11:55:43;10.52;;;4.05;;
60436;SDS011;46289;51.992;4.498;2022-08-19T11:58:19;7.28;;;3.78;;
60436;SDS011;46289;51.992;4.498;2022-08-19T12:01:06;8.90;;;3.67;;
60436;SDS011;46289;51.992;4.498;2022-08-19T12:03:42;6.00;;;3.58;;
60436;SDS011;46289;51.992;4.498;2022-08-19T12:06:17;8.73;;;3.92;;
60436;SDS011;46289;51.992;4.498;2022-08-19T12:08:50;12.00;;;4.75;;
60436;SDS011;46289;51.992;4.498;2022-08-19T12:11:20;7.55;;;4.18;;
60436;SDS011;46289;51.992;4.498;2022-08-19T12:13:50;8.52;;;4.13;;
60436;SDS011;46289;51.992;4.498;2022-08-19T12:16:22;5.95;;;3.65;;
60436;SDS011;46289;51.992;4.498;2022-08-19T12:19:03;7.65;;;3.83;;
60436;SDS011;46289;51.992;4.498;2022-08-19T12:21:34;9.10;;;3.72;;
60436;SDS011;46289;51.992;4.498;2022-08-19T12:24:05;10.52;;;3.60;;
60436;SDS011;46289;51.992;4.498;2022-08-19T12:26:37;8.48;;;3.90;;
60436;SDS011;46289;51.992;4.498;2022-08-19T12:29:19;8.95;;;3.95;;
60436;SDS011;46289;51.992;4.498;2022-08-19T12:31:56;7.07;;;3.20;;
60436;SDS011;46289;51.992;4.498;2022-08-19T12:34:36;8.63;;;3.88;;
60436;SDS011;46289;51.992;4.498;2022-08-19T12:37:07;8.80;;;4.07;;
60436;SDS011;46289;51.992;4.498;2022-08-19T12:39:40;7.45;;;3.25;;
60436;SDS011;46289;51.992;4.498;2022-08-19T12:42:12;10.20;;;4.03;;
60436;SDS011;46289;51.992;4.498;2022-08-19T12:44:44;9.90;;;4.07;;
60436;SDS011;46289;51.992;4.498;2022-08-19T12:47:16;9.38;;;4.03;;
60436;SDS011;46289;51.992;4.498;2022-08-19T12:49:48;10.45;;;4.13;;
60436;SDS011;46289;51.992;4.498;2022-08-19T12:52:22;10.65;;;4.78;;
60436;SDS011;46289;51.992;4.498;2022-08-19T12:55:05;10.95;;;3.95;;
60436;SDS011;46289;51.992;4.498;2022-08-19T12:57:37;7.40;;;3.67;;
60436;SDS011;46289;51.992;4.498;2022-08-19T13:00:15;10.80;;;4.13;;
60436;SDS011;46289;51.992;4.498;2022-08-19T13:02:50;9.55;;;3.90;;
60436;SDS011;46289;51.992;4.498;2022-08-19T13:08:48;7.65;;;4.63;;
60436;SDS011;46289;51.992;4.498;2022-08-19T13:11:36;8.95;;;4.07;;
60436;SDS011;46289;51.992;4.498;2022-08-19T13:14:06;7.90;;;4.55;;
60436;SDS011;46289;51.992;4.498;2022-08-19T13:16:37;11.00;;;4.20;;
60436;SDS011;46289;51.992;4.498;2022-08-19T13:19:07;8.40;;;3.90;;
60436;SDS011;46289;51.992;4.498;2022-08-19T13:21:41;8.30;;;4.18;;
60436;SDS011;46289;51.992;4.498;2022-08-19T13:24:13;7.55;;;4.40;;
60436;SDS011;46289;51.992;4.498;2022-08-19T13:26:43;7.47;;;3.58;;
60436;SDS011;46289;51.992;4.498;2022-08-19T13:29:23;6.63;;;3.63;;
60436;SDS011;46289;51.992;4.498;2022-08-19T13:32:11;6.05;;;3.30;;
60436;SDS011;46289;51.992;4.498;2022-08-19T13:34:57;7.18;;;3.15;;
60436;SDS011;46289;51.992;4.498;2022-08-19T13:37:36;7.65;;;3.25;;
60436;SDS011;46289;51.992;4.498;2022-08-19T13:40:17;7.47;;;3.55;;
60436;SDS011;46289;51.992;4.498;2022-08-19T13:42:50;6.22;;;3.00;;
60436;SDS011;46289;51.992;4.498;2022-08-19T13:45:38;5.43;;;2.67;;
60436;SDS011;46289;51.992;4.498;2022-08-19T13:48:13;5.85;;;2.75;;
60436;SDS011;46289;51.992;4.498;2022-08-19T13:50:44;4.50;;;2.50;;
60436;SDS011;46289;51.992;4.498;2022-08-19T13:53:20;5.32;;;2.70;;
60436;SDS011;46289;51.992;4.498;2022-08-19T13:55:50;4.07;;;2.28;;
60436;SDS011;46289;51.992;4.498;2022-08-19T13:58:20;5.35;;;2.40;;
60436;SDS011;46289;51.992;4.498;2022-08-19T14:01:07;4.03;;;2.40;;
60436;SDS011;46289;51.992;4.498;2022-08-19T14:03:39;5.10;;;2.85;;
60436;SDS011;46289;51.992;4.498;2022-08-19T14:06:09;4.35;;;2.13;;
60436;SDS011;46289;51.992;4.498;2022-08-19T14:08:43;5.28;;;2.35;;
60436;SDS011;46289;51.992;4.498;2022-08-19T14:11:14;5.78;;;2.20;;
60436;SDS011;46289;51.992;4.498;2022-08-19T14:13:45;3.47;;;2.13;;
60436;SDS011;46289;51.992;4.498;2022-08-19T14:16:16;5.30;;;2.50;;
60436;SDS011;46289;51.992;4.498;2022-08-19T14:18:50;3.55;;;2.10;;
60436;SDS011;46289;51.992;4.498;2022-08-19T14:21:22;4.90;;;2.53;;
60436;SDS011;46289;51.992;4.498;2022-08-19T14:24:01;5.90;;;3.22;;
60436;SDS011;46289;51.992;4.498;2022-08-19T14:26:41;7.30;;;2.90;;
60436;SDS011;46289;51.992;4.498;2022-08-19T14:29:15;5.40;;;2.30;;
60436;SDS011;46289;51.992;4.498;2022-08-19T14:31:53;9.10;;;3.35;;
60436;SDS011;46289;51.992;4.498;2022-08-19T14:34:30;6.47;;;3.00;;
60436;SDS011;46289;51.992;4.498;2022-08-19T14:39:43;5.45;;;2.53;;
60436;SDS011;46289;51.992;4.498;2022-08-19T14:42:15;9.30;;;3.85;;
60436;SDS011;46289;51.992;4.498;2022-08-19T14:45:00;8.10;;;3.10;;
60436;SDS011;46289;51.992;4.498;2022-08-19T14:47:31;6.15;;;2.88;;
60436;SDS011;46289;51.992;4.498;2022-08-19T14:50:06;7.30;;;3.30;;
60436;SDS011;46289;51.992;4.498;2022-08-19T14:52:44;6.15;;;2.92;;
60436;SDS011;46289;51.992;4.498;2022-08-19T14:55:17;5.05;;;2.40;;
60436;SDS011;46289;51.992;4.498;2022-08-19T15:00:19;8.05;;;2.97;;
60436;SDS011;46289;51.992;4.498;2022-08-19T15:02:49;7.30;;;3.05;;
60436;SDS011;46289;51.992;4.498;2022-08-19T15:05:20;9.35;;;3.58;;
60436;SDS011;46289;51.992;4.498;2022-08-19T15:07:50;7.32;;;3.28;;
60436;SDS011;46289;51.992;4.498;2022-08-19T15:10:23;8.35;;;4.03;;
60436;SDS011;46289;51.992;4.498;2022-08-19T15:12:56;9.27;;;4.05;;
60436;SDS011;46289;51.992;4.498;2022-08-19T15:15:30;7.78;;;3.50;;
60436;SDS011;46289;51.992;4.498;2022-08-19T15:20:36;7.60;;;3.95;;
60436;SDS011;46289;51.992;4.498;2022-08-19T15:23:12;6.10;;;3.55;;
60436;SDS011;46289;51.992;4.498;2022-08-19T15:25:46;8.52;;;3.40;;
60436;SDS011;46289;51.992;4.498;2022-08-19T15:28:22;6.82;;;3.38;;
60436;SDS011;46289;51.992;4.498;2022-08-19T15:30:54;6.63;;;2.80;;
60436;SDS011;46289;51.992;4.498;2022-08-19T15:33:26;13.27;;;4.75;;
60436;SDS011;46289;51.992;4.498;2022-08-19T15:35:56;7.35;;;3.60;;
60436;SDS011;46289;51.992;4.498;2022-08-19T15:38:27;5.75;;;3.17;;
60436;SDS011;46289;51.992;4.498;2022-08-19T15:41:04;7.35;;;3.45;;
60436;SDS011;46289;51.992;4.498;2022-08-19T15:43:47;6.20;;;2.85;;
60436;SDS011;46289;51.992;4.498;2022-08-19T15:46:19;8.00;;;3.20;;